createdAt,value
2019-04-23T05:34:14.833Z,3.23
2019-04-23T05:36:52.075Z,4.13
2019-04-23T05:39:24.329Z,3.63
2019-04-23T05:49:10.991Z,2.80
2019-04-23T05:54:17.419Z,3.60
2019-04-23T05:56:38.269Z,4.43
2019-04-23T05:59:14.832Z,3.57
2019-04-23T06:04:12.968Z,3.73
2019-04-23T06:06:52.426Z,3.27
2019-04-23T06:09:09.135Z,4.00
2019-04-23T06:11:47.355Z,4.13
2019-04-23T06:14:05.302Z,3.57
2019-04-23T06:16:36.251Z,4.20
2019-04-23T06:19:03.019Z,3.87
2019-04-23T06:21:34.719Z,3.97
2019-04-23T06:23:58.548Z,3.97
2019-04-23T06:29:00.859Z,4.27
2019-04-23T06:31:30.807Z,4.57
2019-04-23T06:33:59.229Z,4.27
2019-04-23T06:36:25.960Z,4.20
2019-04-23T06:41:21.965Z,4.03
2019-04-23T06:44:24.095Z,4.20
2019-04-23T06:49:26.461Z,5.17
2019-04-23T06:51:55.176Z,4.33
2019-04-23T06:54:18.507Z,4.03
2019-04-23T06:56:54.127Z,3.23
2019-04-23T06:59:20.017Z,4.83
2019-04-23T07:01:50.392Z,4.50
2019-04-23T07:04:15.039Z,5.67
2019-04-23T07:06:46.919Z,3.00
2019-04-23T07:09:12.027Z,4.57
2019-04-23T07:13:58.364Z,3.10
2019-04-23T07:16:34.722Z,3.43
2019-04-23T07:19:09.200Z,4.10
2019-04-23T07:21:27.811Z,4.20
2019-04-23T07:29:05.093Z,4.40
2019-04-23T07:36:31.066Z,5.60
2019-04-23T07:39:29.570Z,4.90
2019-04-23T07:45:45.349Z,5.90
2019-04-23T07:53:19.608Z,5.17
2019-04-23T08:03:22.736Z,4.80
2019-04-23T08:08:07.221Z,4.77
2019-04-23T08:10:35.792Z,5.70
2019-04-23T08:13:08.583Z,5.73
2019-04-23T08:15:38.353Z,6.10
2019-04-23T08:18:07.236Z,5.20
2019-04-23T08:20:34.992Z,5.97
2019-04-23T08:23:01.911Z,6.77
2019-04-23T08:25:35.558Z,6.23
2019-04-23T08:28:13.571Z,5.80
2019-04-23T08:30:32.340Z,3.83
2019-04-23T08:33:03.705Z,5.90
2019-04-23T08:35:37.709Z,5.77
2019-04-23T08:38:16.042Z,3.90
2019-04-23T08:40:33.762Z,4.70
2019-04-23T08:43:03.631Z,5.60
2019-04-23T08:45:31.422Z,5.13
2019-04-23T08:48:15.503Z,5.77
2019-04-23T08:50:40.774Z,5.60
2019-04-23T08:53:21.498Z,4.77
2019-04-23T08:55:38.787Z,4.90
2019-04-23T08:58:06.027Z,3.93
2019-04-23T09:00:42.437Z,4.90
2019-04-23T09:03:04.631Z,4.37
2019-04-23T09:08:07.082Z,4.07
2019-04-23T09:10:37.454Z,3.87
2019-04-23T09:13:26.845Z,3.47
2019-04-23T09:18:04.362Z,5.63
2019-04-23T09:22:51.744Z,4.30
2019-04-23T09:25:33.363Z,5.37
2019-04-23T09:27:53.190Z,4.03
2019-04-23T09:30:26.973Z,3.73
2019-04-23T09:32:51.612Z,4.93
2019-04-23T09:36:29.575Z,4.67
2019-04-23T09:39:00.402Z,5.80
2019-04-23T09:44:39.173Z,4.60
2019-04-23T09:46:49.504Z,7.00
2019-04-23T09:49:14.816Z,5.47
2019-04-23T09:54:12.946Z,6.80
2019-04-23T09:59:09.119Z,8.03
2019-04-23T10:03:52.102Z,6.63
2019-04-23T10:06:12.640Z,8.47
2019-04-23T10:08:39.506Z,7.60
2019-04-23T10:11:03.041Z,6.13
2019-04-23T10:13:31.789Z,7.87
2019-04-23T10:16:02.298Z,8.63
2019-04-23T10:18:31.026Z,9.30
2019-04-23T10:20:59.354Z,7.87
2019-04-23T10:23:27.339Z,6.97
2019-04-23T10:25:56.370Z,7.87
2019-04-23T10:28:35.906Z,8.23
2019-04-23T10:31:04.877Z,6.13
2019-04-23T10:33:34.069Z,8.77
2019-04-23T10:36:08.519Z,8.83
2019-04-23T10:38:32.788Z,7.57
2019-04-23T10:41:00.387Z,9.03
2019-04-23T10:43:30.857Z,8.33
2019-04-23T10:46:28.043Z,7.47
2019-04-23T10:52:30.495Z,8.00
2019-04-23T10:54:59.409Z,8.90
2019-04-23T10:57:26.495Z,9.00
2019-04-23T10:59:55.708Z,9.17
2019-04-23T11:10:05.644Z,9.10
2019-04-23T11:17:38.398Z,5.47
2019-04-23T11:25:15.400Z,5.70
2019-04-23T11:30:11.890Z,7.50
2019-04-23T11:35:11.499Z,9.80
2019-04-23T11:37:45.782Z,7.53
2019-04-23T11:40:01.683Z,11.70
2019-04-23T11:47:46.964Z,12.00
2019-04-23T11:49:53.502Z,10.30
2019-04-23T11:54:44.606Z,12.20
2019-04-23T11:59:46.504Z,6.50
2019-04-23T12:02:23.286Z,7.90
2019-04-23T12:05:00.958Z,6.63
2019-04-23T12:07:29.818Z,8.30
2019-04-23T12:10:25.181Z,8.73
2019-04-23T12:12:28.164Z,8.60
2019-04-23T12:15:18.408Z,9.83
2019-04-23T12:17:49.185Z,10.27
2019-04-23T12:20:06.231Z,6.43
2019-04-23T12:22:29.889Z,7.63
2019-04-23T12:27:31.162Z,8.87
2019-04-23T12:29:54.297Z,9.03
2019-04-23T12:47:36.377Z,11.10
2019-04-23T12:52:25.535Z,11.47
2019-04-23T12:57:30.070Z,11.20
2019-04-23T12:59:54.841Z,10.63
2019-04-23T13:02:27.520Z,10.23
2019-04-23T13:04:48.749Z,12.00
2019-04-23T13:07:17.226Z,12.70
2019-04-23T13:12:20.831Z,16.00
2019-04-23T13:17:20.784Z,17.30
2019-04-23T13:19:47.411Z,13.57
2019-04-23T13:24:44.045Z,11.50
2019-04-23T13:27:17.787Z,13.77
2019-04-23T13:29:43.219Z,12.93
2019-04-23T13:32:13.387Z,16.83
2019-04-23T13:37:12.010Z,16.20
2019-04-23T13:39:39.680Z,12.90
2019-04-23T13:42:06.032Z,15.63
2019-04-23T13:44:36.105Z,15.73
2019-04-23T13:47:10.789Z,14.40
2019-04-23T13:49:36.756Z,15.53
2019-04-23T13:52:19.818Z,13.03
2019-04-23T13:57:36.993Z,16.97
2019-04-23T14:01:56.202Z,17.07
2019-04-23T14:04:38.876Z,15.57
2019-04-23T14:09:37.400Z,13.07
2019-04-23T14:12:04.469Z,11.70
2019-04-23T14:14:43.736Z,11.90
2019-04-23T14:17:11.505Z,13.80
2019-04-23T14:19:26.470Z,12.90
2019-04-23T14:22:13.611Z,13.53
2019-04-23T14:24:26.820Z,11.70
2019-04-23T14:26:58.275Z,11.93
2019-04-23T14:29:28.081Z,11.90
2019-04-23T14:32:07.120Z,11.37
2019-04-23T14:34:24.907Z,10.40
2019-04-23T14:36:57.658Z,11.03
2019-04-23T14:42:03.630Z,10.43
2019-04-23T14:44:44.098Z,10.80
2019-04-23T14:47:16.812Z,9.73
2019-04-23T14:49:53.980Z,10.37
2019-04-23T14:52:16.533Z,9.27
2019-04-23T14:57:23.210Z,8.93
2019-04-23T14:59:35.898Z,9.17
2019-04-23T15:02:05.365Z,8.90
2019-04-23T15:04:36.307Z,8.87
2019-04-23T15:07:10.858Z,9.07
2019-04-23T15:09:36.850Z,8.97
2019-04-23T15:14:36.196Z,9.73
2019-04-23T15:17:03.679Z,13.00
2019-04-23T15:19:37.267Z,12.63
2019-04-23T15:22:14.635Z,11.50
2019-04-23T15:24:25.949Z,11.30
2019-04-23T15:29:09.307Z,11.10
2019-04-23T15:31:58.869Z,9.13
2019-04-23T15:34:17.638Z,10.57
2019-04-23T15:37:00.861Z,9.67
2019-04-23T15:39:26.987Z,10.53
2019-04-23T15:41:57.208Z,8.03
2019-04-23T15:44:13.564Z,10.43
2019-04-23T15:46:47.226Z,10.67
2019-04-23T15:54:37.215Z,9.90
2019-04-23T16:03:43.274Z,8.30
2019-04-23T16:06:11.457Z,8.63
2019-04-23T16:14:16.988Z,7.63
2019-04-23T16:19:13.738Z,8.93
2019-04-23T16:21:48.354Z,10.07
2019-04-23T16:24:06.035Z,9.43
2019-04-23T16:26:40.845Z,7.57
2019-04-23T16:29:30.866Z,9.13
2019-04-23T16:31:34.942Z,10.90
2019-04-23T16:34:12.150Z,7.50
2019-04-23T16:36:41.381Z,9.43
2019-04-23T16:39:07.469Z,10.30
2019-04-23T16:41:43.771Z,9.80
2019-04-23T16:44:09.403Z,8.17
2019-04-23T16:46:31.469Z,7.17
2019-04-23T16:49:15.230Z,8.00
2019-04-23T16:54:01.133Z,9.77
2019-04-23T17:01:23.174Z,7.27
2019-04-23T17:03:59.973Z,7.27
2019-04-23T17:06:27.145Z,7.50
2019-04-23T17:11:25.365Z,10.17
2019-04-23T17:14:06.916Z,10.97
2019-04-23T17:16:28.701Z,8.70
2019-04-23T17:21:18.153Z,9.60
2019-04-23T17:23:59.597Z,11.10
2019-04-23T17:26:19.020Z,9.50
2019-04-23T17:28:47.567Z,8.57
2019-04-23T17:31:32.801Z,8.67
2019-04-23T17:33:43.530Z,8.80
2019-04-23T17:36:50.147Z,10.10
2019-04-23T17:41:48.522Z,6.90
2019-04-23T17:49:14.333Z,10.20
2019-04-23T17:51:37.749Z,9.30
2019-04-23T17:54:10.987Z,8.13
2019-04-23T17:56:49.468Z,10.40
2019-04-23T17:59:13.302Z,10.40
2019-04-23T18:02:14.678Z,12.30
2019-04-23T18:04:20.563Z,8.03
2019-04-23T18:06:37.680Z,10.67
2019-04-23T18:09:12.830Z,10.33
2019-04-23T18:11:47.560Z,9.10
2019-04-23T18:16:35.534Z,6.17
2019-04-23T18:19:00.713Z,6.03
2019-04-23T18:21:39.730Z,9.30
2019-04-23T18:26:36.333Z,5.93
2019-04-23T18:29:15.688Z,9.93
2019-04-23T18:31:44.603Z,9.83
2019-04-23T18:34:16.364Z,11.20
2019-04-23T18:36:38.779Z,11.17
2019-04-23T18:39:18.724Z,11.50
2019-04-23T18:41:43.515Z,9.83
2019-04-23T18:44:19.239Z,11.20
2019-04-23T18:46:43.592Z,10.37
2019-04-23T18:49:05.711Z,7.23
2019-04-23T18:51:37.360Z,9.53
2019-04-23T18:54:07.321Z,9.77
2019-04-23T18:56:51.487Z,11.07
2019-04-23T19:01:40.836Z,12.50
2019-04-23T19:04:19.659Z,8.77
2019-04-23T19:06:38.140Z,9.67
2019-04-23T19:09:23.508Z,11.80
2019-04-23T19:12:05.055Z,10.37
2019-04-23T19:14:39.033Z,8.73
2019-04-23T19:17:32.559Z,11.40
2019-04-23T19:19:38.252Z,10.97
2019-04-23T19:24:27.617Z,12.07
2019-04-23T19:27:13.673Z,12.20
2019-04-23T19:29:36.928Z,16.20
2019-04-23T19:36:59.734Z,12.30
2019-04-23T19:39:38.194Z,10.87
2019-04-23T19:41:59.092Z,11.40
2019-04-23T19:44:25.665Z,8.90
2019-04-23T19:49:28.880Z,10.60
2019-04-23T19:54:26.073Z,9.50
2019-04-23T19:59:14.481Z,11.23
2019-04-23T20:01:47.258Z,13.07
2019-04-23T20:04:25.350Z,10.87
2019-04-23T20:09:30.871Z,12.87
2019-04-23T20:11:52.897Z,12.67
2019-04-23T20:14:46.067Z,12.13
2019-04-23T20:16:48.993Z,13.33
2019-04-23T20:19:20.943Z,10.30
2019-04-23T20:21:44.952Z,12.67
2019-04-23T20:24:22.890Z,12.13
2019-04-23T20:26:32.357Z,13.67
2019-04-23T20:34:31.043Z,14.73
2019-04-23T20:39:21.255Z,12.60
2019-04-23T20:44:35.040Z,14.53
2019-04-23T20:47:01.931Z,13.73
2019-04-23T20:49:21.383Z,13.10
2019-04-23T20:51:58.196Z,15.07
2019-04-23T20:54:22.679Z,14.80
2019-04-23T20:57:00.528Z,13.43
